Dati Storici

Data ora Umidita' aria (%) Temperatura aria (°C) Rad globale (W/m²) Gonioanemometro (°) Tacoanemometro (m/s) Pioggia (mm)
24-06-2020 05:30 72.2 % 21.655 38.397 0.448 0 0
24-06-2020 05:20 70.3 % 21.907 39.197 -0.013 0 0
24-06-2020 05:10 67.7 % 22.287 43.296 -0.015 0 0
24-06-2020 05:00 67.4 % 22.147 82.791 -0.013 0 0
24-06-2020 04:50 66.5 % 22.275 96.6 -0.011 0 0
24-06-2020 04:40 66.3 % 22.295 98.507 0.209 0 0
24-06-2020 04:30 67.3 % 22.393 78.455 0.918 0 0
24-06-2020 04:20 69.9 % 22.427 100.745 0.877 0 0
24-06-2020 04:10 70.4 % 22.498 37.271 0.4 0 0
24-06-2020 04:00 70.2 % 22.516 71.441 -0.012 0 0
24-06-2020 03:50 68.9 % 22.592 49.15 0.322 0 0
24-06-2020 03:40 68 % 22.805 79.697 0.801 0 0
24-06-2020 03:30 67 % 23.022 90.826 0.839 0 0
24-06-2020 03:20 66.8 % 23.16 70.361 1.308 0 0
24-06-2020 03:10 67.4 % 23.167 106.042 2.156 0 0
24-06-2020 03:00 66.9 % 23.357 101.242 2.279 0 0
24-06-2020 02:50 67.6 % 23.466 38.647 1.722 0 0
24-06-2020 02:40 66.9 % 23.662 87.754 -0.016 0 0
24-06-2020 02:30 67.3 % 23.756 116.749 1.236 0 0
24-06-2020 02:20 67 % 23.845 110.132 2.982 0 0

I dati sono presentati in modo automatico a scopo informativo. In seguito a verifica i dati possono subire modifiche o essere invalidati e non riportati negli archivi definitivi.